createdAt,value
2022-09-12T00:03:19.545Z,101710.0
2022-09-12T00:08:19.542Z,101700.0
2022-09-12T00:13:19.546Z,101700.0
2022-09-12T00:18:19.549Z,101700.0
2022-09-12T00:23:19.545Z,101690.0
2022-09-12T00:28:19.556Z,101700.0
2022-09-12T00:33:19.551Z,101690.0
2022-09-12T00:38:19.561Z,101670.0
2022-09-12T00:43:19.559Z,101690.0
2022-09-12T00:48:19.564Z,101670.0
2022-09-12T00:53:19.561Z,101670.0
2022-09-12T00:58:19.564Z,101670.0
2022-09-12T01:03:19.562Z,101650.0
2022-09-12T01:08:19.566Z,101650.0
2022-09-12T01:13:19.573Z,101650.0
2022-09-12T01:18:19.576Z,101650.0
2022-09-12T01:23:19.574Z,101640.0
2022-09-12T01:28:19.576Z,101640.0
2022-09-12T01:33:19.580Z,101640.0
2022-09-12T01:38:19.637Z,101640.0
2022-09-12T01:43:19.584Z,101630.0
2022-09-12T01:48:19.592Z,101640.0
2022-09-12T01:53:19.593Z,101630.0
2022-09-12T01:58:19.599Z,101620.0
2022-09-12T02:03:19.598Z,101620.0
2022-09-12T02:08:19.598Z,101620.0
2022-09-12T02:13:19.603Z,101600.0
2022-09-12T02:18:19.608Z,101600.0
2022-09-12T02:23:19.602Z,101600.0
2022-09-12T02:28:19.607Z,101590.0
2022-09-12T02:33:19.612Z,101580.0
2022-09-12T02:38:19.615Z,101580.0
2022-09-12T02:43:19.613Z,101600.0
2022-09-12T02:48:19.660Z,101600.0
2022-09-12T02:53:19.620Z,101600.0
2022-09-12T02:58:19.624Z,101600.0
2022-09-12T03:03:19.628Z,101600.0
2022-09-12T03:08:19.633Z,101590.0
2022-09-12T03:13:19.642Z,101580.0
2022-09-12T03:18:19.633Z,101580.0
2022-09-12T03:23:19.639Z,101580.0
2022-09-12T03:28:19.639Z,101570.0
2022-09-12T03:33:19.641Z,101570.0
2022-09-12T03:38:19.649Z,101560.0
2022-09-12T03:43:19.646Z,101560.0
2022-09-12T03:48:19.652Z,101560.0
2022-09-12T03:53:19.659Z,101550.0
2022-09-12T03:58:19.658Z,101560.0
2022-09-12T04:03:19.664Z,101550.0
2022-09-12T04:08:19.664Z,101550.0
2022-09-12T04:13:19.665Z,101540.0
2022-09-12T04:18:19.670Z,101550.0
2022-09-12T04:23:19.681Z,101540.0
2022-09-12T04:28:19.678Z,101540.0
2022-09-12T04:33:19.680Z,101530.0
2022-09-12T04:38:19.684Z,101530.0
2022-09-12T04:43:19.682Z,101530.0
2022-09-12T04:48:19.691Z,101530.0
2022-09-12T04:53:19.689Z,101530.0
2022-09-12T04:58:19.691Z,101530.0
2022-09-12T05:03:19.688Z,101530.0
2022-09-12T05:08:19.700Z,101520.0
2022-09-12T05:13:19.708Z,101530.0
2022-09-12T05:18:19.727Z,101530.0
2022-09-12T05:23:19.701Z,101530.0
2022-09-12T05:28:19.711Z,101540.0
2022-09-12T05:33:24.482Z,101530.0
2022-09-12T05:38:19.712Z,101530.0
2022-09-12T05:43:19.714Z,101530.0
2022-09-12T05:48:19.723Z,101540.0
2022-09-12T05:53:19.722Z,101550.0
2022-09-12T05:58:19.729Z,101540.0
2022-09-12T06:03:19.732Z,101540.0
2022-09-12T06:08:19.737Z,101540.0
2022-09-12T06:13:19.739Z,101550.0
2022-09-12T06:18:19.742Z,101540.0
2022-09-12T06:23:19.743Z,101550.0
2022-09-12T06:28:19.747Z,101550.0
2022-09-12T06:33:19.746Z,101550.0
2022-09-12T06:38:19.751Z,101540.0
2022-09-12T06:43:19.752Z,101550.0
2022-09-12T06:48:19.758Z,101540.0
2022-09-12T06:53:19.762Z,101540.0
2022-09-12T06:58:19.769Z,101540.0
2022-09-12T07:03:19.772Z,101530.0
2022-09-12T07:08:19.766Z,101550.0
2022-09-12T07:13:19.780Z,101540.0
2022-09-12T07:18:19.774Z,101530.0
2022-09-12T07:23:19.790Z,101540.0
2022-09-12T07:28:19.793Z,101530.0
2022-09-12T07:33:19.801Z,101510.0
2022-09-12T07:38:19.802Z,101510.0
2022-09-12T07:43:19.807Z,101520.0
2022-09-12T07:48:19.807Z,101520.0
2022-09-12T07:53:19.817Z,101520.0
2022-09-12T07:58:19.817Z,101520.0
2022-09-12T08:03:19.823Z,101520.0
2022-09-12T08:08:19.831Z,101530.0
2022-09-12T08:13:19.838Z,101520.0
2022-09-12T08:18:19.847Z,101520.0
2022-09-12T08:23:19.851Z,101530.0
2022-09-12T08:28:19.847Z,101530.0
2022-09-12T08:33:19.860Z,101530.0
2022-09-12T08:38:19.862Z,101520.0
2022-09-12T08:43:19.868Z,101530.0
2022-09-12T08:48:19.871Z,101530.0
2022-09-12T08:53:19.877Z,101520.0
2022-09-12T08:58:19.878Z,101520.0
2022-09-12T09:03:19.879Z,101520.0
2022-09-12T09:08:19.890Z,101520.0
2022-09-12T09:13:19.888Z,101510.0
2022-09-12T09:18:19.900Z,101510.0
2022-09-12T09:23:19.896Z,101500.0
2022-09-12T09:28:19.900Z,101500.0
2022-09-12T09:33:19.905Z,101500.0
2022-09-12T09:38:19.910Z,101490.0
2022-09-12T09:43:19.913Z,101490.0
2022-09-12T09:48:19.914Z,101480.0
2022-09-12T09:53:19.920Z,101470.0
2022-09-12T09:58:19.922Z,101470.0
2022-09-12T10:03:19.933Z,101460.0
2022-09-12T10:08:19.937Z,101460.0
2022-09-12T10:13:19.937Z,101460.0
2022-09-12T10:18:19.944Z,101450.0
2022-09-12T10:23:19.946Z,101440.0
2022-09-12T10:28:19.946Z,101440.0
2022-09-12T10:33:19.953Z,101440.0
2022-09-12T10:38:19.959Z,101420.0
2022-09-12T10:43:19.961Z,101420.0
2022-09-12T10:48:19.863Z,101410.0
2022-09-12T10:53:19.880Z,101410.0
2022-09-12T10:58:19.871Z,101390.0
2022-09-12T11:03:19.879Z,101390.0
2022-09-12T11:08:19.880Z,101390.0
2022-09-12T11:13:19.884Z,101380.0
2022-09-12T11:18:19.889Z,101370.0
2022-09-12T11:23:19.890Z,101360.0
2022-09-12T11:28:19.919Z,101360.0
2022-09-12T11:33:19.896Z,101360.0
2022-09-12T11:38:19.899Z,101360.0
2022-09-12T11:43:19.907Z,101350.0
2022-09-12T11:48:19.896Z,101360.0
2022-09-12T11:53:19.911Z,101350.0
2022-09-12T11:58:19.914Z,101350.0
2022-09-12T12:03:19.951Z,101360.0
2022-09-12T12:08:19.920Z,101360.0
2022-09-12T12:13:20.089Z,101350.0
2022-09-12T12:18:19.927Z,101350.0
2022-09-12T12:23:19.934Z,101360.0
2022-09-12T12:28:19.937Z,101350.0
2022-09-12T12:33:19.951Z,101330.0
2022-09-12T12:38:19.949Z,101330.0
2022-09-12T12:43:19.950Z,101320.0
2022-09-12T12:48:19.948Z,101320.0
2022-09-12T12:53:19.953Z,101310.0
2022-09-12T12:58:19.951Z,101300.0
2022-09-12T13:03:19.962Z,101300.0
2022-09-12T13:08:19.990Z,101300.0
2022-09-12T13:13:19.979Z,101290.0
2022-09-12T13:18:19.981Z,101280.0
2022-09-12T13:23:19.980Z,101280.0
2022-09-12T13:28:19.973Z,101270.0
2022-09-12T13:33:19.990Z,101270.0
2022-09-12T13:38:20.009Z,101270.0
2022-09-12T13:43:19.998Z,101260.0
2022-09-12T13:53:20.004Z,101240.0
2022-09-12T13:58:19.997Z,101240.0
2022-09-12T14:03:20.008Z,101230.0
2022-09-12T14:08:20.006Z,101230.0
2022-09-12T14:13:20.013Z,101230.0
2022-09-12T14:18:20.013Z,101210.0
2022-09-12T14:23:20.019Z,101210.0
2022-09-12T14:33:20.017Z,101200.0
2022-09-12T14:38:20.034Z,101200.0
2022-09-12T14:43:20.031Z,101210.0
2022-09-12T14:48:20.034Z,101200.0
2022-09-12T14:53:20.031Z,101190.0
2022-09-12T14:58:20.039Z,101180.0
2022-09-12T15:03:20.044Z,101180.0
2022-09-12T15:08:20.045Z,101170.0
2022-09-12T15:13:20.040Z,101160.0
2022-09-12T15:18:20.042Z,101160.0
2022-09-12T15:23:20.045Z,101160.0
2022-09-12T15:28:20.051Z,101160.0
2022-09-12T15:33:20.055Z,101150.0
2022-09-12T15:38:23.157Z,101160.0
2022-09-12T15:43:20.057Z,101150.0
2022-09-12T15:48:20.060Z,101130.0
2022-09-12T15:53:20.063Z,101130.0
2022-09-12T15:58:20.069Z,101140.0
2022-09-12T16:03:20.085Z,101130.0
2022-09-12T16:08:20.074Z,101120.0
2022-09-12T16:13:20.082Z,101110.0
2022-09-12T16:18:20.081Z,101110.0
2022-09-12T16:23:20.090Z,101110.0
2022-09-12T16:28:20.086Z,101100.0
2022-09-12T16:33:20.088Z,101100.0
2022-09-12T16:38:20.095Z,101090.0
2022-09-12T16:43:20.099Z,101090.0
2022-09-12T16:48:20.094Z,101090.0
2022-09-12T16:53:20.099Z,101080.0
2022-09-12T16:58:20.100Z,101080.0
2022-09-12T17:03:20.104Z,101090.0
2022-09-12T17:08:20.105Z,101080.0
2022-09-12T17:13:20.109Z,101080.0
2022-09-12T17:18:20.117Z,101080.0
2022-09-12T17:23:20.111Z,101060.0
2022-09-12T17:28:20.115Z,101050.0
2022-09-12T17:33:20.116Z,101050.0
2022-09-12T17:38:24.551Z,101040.0
2022-09-12T17:48:20.217Z,101030.0
2022-09-12T17:53:20.223Z,101030.0
2022-09-12T17:58:20.224Z,101030.0
2022-09-12T18:03:20.244Z,101040.0
2022-09-12T18:08:20.225Z,101040.0
2022-09-12T18:13:20.232Z,101040.0
2022-09-12T18:18:20.232Z,101040.0
2022-09-12T18:23:20.234Z,101050.0
2022-09-12T18:28:20.235Z,101050.0
2022-09-12T18:33:23.937Z,101060.0
2022-09-12T18:38:20.240Z,101050.0
2022-09-12T18:43:20.241Z,101060.0
2022-09-12T18:48:20.247Z,101060.0
2022-09-12T18:53:20.245Z,101070.0
2022-09-12T18:58:20.251Z,101070.0
2022-09-12T19:03:20.249Z,101070.0
2022-09-12T19:08:20.252Z,101070.0
2022-09-12T19:13:20.251Z,101070.0
2022-09-12T19:18:20.253Z,101080.0
2022-09-12T19:23:20.262Z,101070.0
2022-09-12T19:28:20.259Z,101060.0
2022-09-12T19:33:20.252Z,101050.0
2022-09-12T19:38:20.263Z,101040.0
2022-09-12T19:43:20.267Z,101030.0
2022-09-12T19:48:20.269Z,101030.0
2022-09-12T19:53:20.266Z,101020.0
2022-09-12T19:58:20.901Z,101020.0
2022-09-12T20:03:20.268Z,101030.0
2022-09-12T20:08:20.280Z,101030.0
2022-09-12T20:13:20.275Z,101020.0
2022-09-12T20:18:20.279Z,101010.0
2022-09-12T20:23:20.279Z,101010.0
2022-09-12T20:28:20.287Z,101000.0
2022-09-12T20:33:20.282Z,100990.0
2022-09-12T20:38:20.287Z,101010.0
2022-09-12T20:43:20.287Z,101000.0
2022-09-12T20:48:20.294Z,101000.0
2022-09-12T20:53:20.300Z,100990.0
2022-09-12T20:58:20.294Z,100970.0
2022-09-12T21:03:20.302Z,100980.0
2022-09-12T21:08:20.302Z,100980.0
2022-09-12T21:13:20.302Z,100980.0
2022-09-12T21:18:20.303Z,100970.0
2022-09-12T21:23:20.305Z,100990.0
2022-09-12T21:28:20.311Z,100980.0
2022-09-12T21:33:20.312Z,100990.0
2022-09-12T21:38:20.314Z,101000.0
2022-09-12T21:43:20.316Z,101010.0
2022-09-12T21:48:20.324Z,101020.0
2022-09-12T21:53:20.327Z,101000.0
2022-09-12T21:58:20.326Z,101000.0
2022-09-12T22:03:20.330Z,101010.0
2022-09-12T22:08:20.329Z,101020.0
2022-09-12T22:13:20.334Z,101020.0
2022-09-12T22:18:20.336Z,101020.0
2022-09-12T22:23:24.586Z,101030.0
2022-09-12T22:28:20.344Z,101020.0
2022-09-12T22:33:20.343Z,101030.0
2022-09-12T22:38:20.348Z,101010.0
2022-09-12T22:43:20.361Z,101000.0
2022-09-12T22:48:20.358Z,101000.0
2022-09-12T22:53:20.361Z,101000.0
2022-09-12T22:58:20.367Z,101000.0
2022-09-12T23:03:20.491Z,100990.0
2022-09-12T23:08:20.370Z,100990.0
2022-09-12T23:13:20.374Z,100980.0
2022-09-12T23:18:20.371Z,100990.0
2022-09-12T23:23:20.375Z,100980.0
2022-09-12T23:28:20.375Z,100970.0
2022-09-12T23:33:20.389Z,100960.0
2022-09-12T23:38:20.386Z,100970.0
2022-09-12T23:43:20.386Z,100950.0
2022-09-12T23:48:20.392Z,100940.0
2022-09-12T23:53:20.390Z,100940.0
2022-09-12T23:58:20.395Z,100940.0
